sensor_id;sensor_type;location;lat;lon;timestamp;P1;durP1;ratioP1;P2;durP2;ratioP2
1106;SDS011;540;49.448;8.612;2024-01-06T00:00:17;6.60;;;2.70;;
1106;SDS011;540;49.448;8.612;2024-01-06T00:02:47;7.30;;;3.20;;
1106;SDS011;540;49.448;8.612;2024-01-06T00:05:17;6.47;;;3.05;;
1106;SDS011;540;49.448;8.612;2024-01-06T00:07:45;6.30;;;3.70;;
1106;SDS011;540;49.448;8.612;2024-01-06T00:10:13;7.85;;;4.00;;
1106;SDS011;540;49.448;8.612;2024-01-06T00:12:44;9.10;;;3.58;;
1106;SDS011;540;49.448;8.612;2024-01-06T00:15:13;5.15;;;3.05;;
1106;SDS011;540;49.448;8.612;2024-01-06T00:17:41;4.78;;;2.83;;
1106;SDS011;540;49.448;8.612;2024-01-06T00:20:09;7.50;;;2.90;;
1106;SDS011;540;49.448;8.612;2024-01-06T00:22:38;6.07;;;3.30;;
1106;SDS011;540;49.448;8.612;2024-01-06T00:25:07;6.03;;;3.03;;
1106;SDS011;540;49.448;8.612;2024-01-06T00:27:35;6.72;;;2.83;;
1106;SDS011;540;49.448;8.612;2024-01-06T00:30:05;6.28;;;2.80;;
1106;SDS011;540;49.448;8.612;2024-01-06T00:32:34;5.65;;;2.80;;
1106;SDS011;540;49.448;8.612;2024-01-06T00:35:03;5.22;;;2.90;;
1106;SDS011;540;49.448;8.612;2024-01-06T00:37:32;7.22;;;3.28;;
1106;SDS011;540;49.448;8.612;2024-01-06T00:40:00;7.95;;;3.08;;
1106;SDS011;540;49.448;8.612;2024-01-06T00:42:28;7.20;;;3.33;;
1106;SDS011;540;49.448;8.612;2024-01-06T00:44:55;7.35;;;3.72;;
1106;SDS011;540;49.448;8.612;2024-01-06T00:47:25;10.63;;;5.78;;
1106;SDS011;540;49.448;8.612;2024-01-06T00:49:52;9.85;;;4.97;;
1106;SDS011;540;49.448;8.612;2024-01-06T00:52:21;11.57;;;4.97;;
1106;SDS011;540;49.448;8.612;2024-01-06T00:54:48;10.23;;;4.60;;
1106;SDS011;540;49.448;8.612;2024-01-06T00:57:16;8.27;;;4.15;;
1106;SDS011;540;49.448;8.612;2024-01-06T00:59:50;9.43;;;4.95;;
1106;SDS011;540;49.448;8.612;2024-01-06T01:02:18;8.77;;;4.60;;
1106;SDS011;540;49.448;8.612;2024-01-06T01:04:47;7.22;;;4.10;;
1106;SDS011;540;49.448;8.612;2024-01-06T01:07:15;6.35;;;4.25;;
1106;SDS011;540;49.448;8.612;2024-01-06T01:09:43;9.00;;;4.82;;
1106;SDS011;540;49.448;8.612;2024-01-06T01:12:11;9.93;;;4.85;;
1106;SDS011;540;49.448;8.612;2024-01-06T01:14:39;7.07;;;5.30;;
1106;SDS011;540;49.448;8.612;2024-01-06T01:17:06;7.32;;;5.00;;
1106;SDS011;540;49.448;8.612;2024-01-06T01:19:34;8.10;;;5.13;;
1106;SDS011;540;49.448;8.612;2024-01-06T01:22:06;8.73;;;5.63;;
1106;SDS011;540;49.448;8.612;2024-01-06T01:24:34;9.75;;;5.50;;
1106;SDS011;540;49.448;8.612;2024-01-06T01:27:02;14.70;;;7.57;;
1106;SDS011;540;49.448;8.612;2024-01-06T01:29:30;18.08;;;10.57;;
1106;SDS011;540;49.448;8.612;2024-01-06T01:31:58;17.88;;;10.23;;
1106;SDS011;540;49.448;8.612;2024-01-06T01:34:26;15.38;;;9.80;;
1106;SDS011;540;49.448;8.612;2024-01-06T01:36:54;16.33;;;9.73;;
1106;SDS011;540;49.448;8.612;2024-01-06T01:39:23;17.33;;;10.25;;
1106;SDS011;540;49.448;8.612;2024-01-06T01:41:51;15.50;;;9.18;;
1106;SDS011;540;49.448;8.612;2024-01-06T01:44:19;14.10;;;9.60;;
1106;SDS011;540;49.448;8.612;2024-01-06T01:46:47;18.98;;;10.18;;
1106;SDS011;540;49.448;8.612;2024-01-06T01:49:15;13.90;;;8.95;;
1106;SDS011;540;49.448;8.612;2024-01-06T01:51:43;12.68;;;8.38;;
1106;SDS011;540;49.448;8.612;2024-01-06T01:54:11;11.82;;;6.70;;
1106;SDS011;540;49.448;8.612;2024-01-06T01:56:40;10.07;;;5.82;;
1106;SDS011;540;49.448;8.612;2024-01-06T01:59:10;7.35;;;4.60;;
1106;SDS011;540;49.448;8.612;2024-01-06T02:01:40;9.45;;;4.88;;
1106;SDS011;540;49.448;8.612;2024-01-06T02:04:08;8.05;;;4.53;;
1106;SDS011;540;49.448;8.612;2024-01-06T02:06:36;8.98;;;3.95;;
1106;SDS011;540;49.448;8.612;2024-01-06T02:09:04;8.63;;;4.63;;
1106;SDS011;540;49.448;8.612;2024-01-06T02:11:32;7.10;;;3.65;;
1106;SDS011;540;49.448;8.612;2024-01-06T02:14:01;6.03;;;3.70;;
1106;SDS011;540;49.448;8.612;2024-01-06T02:16:29;8.18;;;4.22;;
1106;SDS011;540;49.448;8.612;2024-01-06T02:18:57;13.18;;;5.10;;
1106;SDS011;540;49.448;8.612;2024-01-06T02:21:25;10.82;;;4.95;;
1106;SDS011;540;49.448;8.612;2024-01-06T02:23:56;7.95;;;4.80;;
1106;SDS011;540;49.448;8.612;2024-01-06T02:26:24;7.50;;;4.68;;
1106;SDS011;540;49.448;8.612;2024-01-06T02:28:52;8.88;;;5.45;;
1106;SDS011;540;49.448;8.612;2024-01-06T02:31:20;7.78;;;4.65;;
1106;SDS011;540;49.448;8.612;2024-01-06T02:33:48;10.20;;;5.10;;
1106;SDS011;540;49.448;8.612;2024-01-06T02:36:16;6.75;;;4.80;;
1106;SDS011;540;49.448;8.612;2024-01-06T02:38:44;9.02;;;5.75;;
1106;SDS011;540;49.448;8.612;2024-01-06T02:41:13;10.98;;;5.43;;
1106;SDS011;540;49.448;8.612;2024-01-06T02:43:41;10.43;;;6.28;;
1106;SDS011;540;49.448;8.612;2024-01-06T02:46:09;8.65;;;5.22;;
1106;SDS011;540;49.448;8.612;2024-01-06T02:48:36;12.70;;;5.13;;
1106;SDS011;540;49.448;8.612;2024-01-06T02:51:05;9.23;;;3.83;;
1106;SDS011;540;49.448;8.612;2024-01-06T02:53:32;8.55;;;4.03;;
1106;SDS011;540;49.448;8.612;2024-01-06T02:56:00;8.80;;;4.30;;
1106;SDS011;540;49.448;8.612;2024-01-06T02:58:29;9.45;;;4.68;;
1106;SDS011;540;49.448;8.612;2024-01-06T03:00:57;10.85;;;5.15;;
1106;SDS011;540;49.448;8.612;2024-01-06T03:03:25;8.50;;;4.95;;
1106;SDS011;540;49.448;8.612;2024-01-06T03:05:53;8.32;;;5.13;;
1106;SDS011;540;49.448;8.612;2024-01-06T03:08:21;10.25;;;5.00;;
1106;SDS011;540;49.448;8.612;2024-01-06T03:10:49;7.38;;;4.80;;
1106;SDS011;540;49.448;8.612;2024-01-06T03:13:17;6.95;;;4.30;;
1106;SDS011;540;49.448;8.612;2024-01-06T03:15:46;7.22;;;3.90;;
1106;SDS011;540;49.448;8.612;2024-01-06T03:18:14;7.50;;;4.35;;
1106;SDS011;540;49.448;8.612;2024-01-06T03:20:42;10.77;;;4.07;;
1106;SDS011;540;49.448;8.612;2024-01-06T03:23:10;10.57;;;4.20;;
1106;SDS011;540;49.448;8.612;2024-01-06T03:25:38;6.85;;;3.58;;
1106;SDS011;540;49.448;8.612;2024-01-06T03:28:05;9.45;;;3.90;;
1106;SDS011;540;49.448;8.612;2024-01-06T03:30:33;7.40;;;3.72;;
1106;SDS011;540;49.448;8.612;2024-01-06T03:33:03;8.60;;;3.70;;
1106;SDS011;540;49.448;8.612;2024-01-06T03:35:31;9.52;;;3.58;;
1106;SDS011;540;49.448;8.612;2024-01-06T03:37:59;6.13;;;3.85;;
1106;SDS011;540;49.448;8.612;2024-01-06T03:40:27;5.32;;;3.38;;
1106;SDS011;540;49.448;8.612;2024-01-06T03:42:54;7.22;;;3.63;;
1106;SDS011;540;49.448;8.612;2024-01-06T03:45:22;7.53;;;3.67;;
1106;SDS011;540;49.448;8.612;2024-01-06T03:47:50;8.70;;;3.67;;
1106;SDS011;540;49.448;8.612;2024-01-06T03:50:19;7.20;;;3.55;;
1106;SDS011;540;49.448;8.612;2024-01-06T03:52:47;7.57;;;3.75;;
1106;SDS011;540;49.448;8.612;2024-01-06T03:55:16;6.57;;;3.85;;
1106;SDS011;540;49.448;8.612;2024-01-06T03:57:43;8.45;;;4.22;;
1106;SDS011;540;49.448;8.612;2024-01-06T04:00:11;11.13;;;4.25;;
1106;SDS011;540;49.448;8.612;2024-01-06T04:02:40;7.88;;;3.97;;
1106;SDS011;540;49.448;8.612;2024-01-06T04:05:07;10.32;;;4.10;;
1106;SDS011;540;49.448;8.612;2024-01-06T04:07:37;8.95;;;3.85;;
1106;SDS011;540;49.448;8.612;2024-01-06T04:10:05;8.27;;;3.80;;
1106;SDS011;540;49.448;8.612;2024-01-06T04:12:33;6.18;;;3.58;;
1106;SDS011;540;49.448;8.612;2024-01-06T04:15:01;6.97;;;3.60;;
1106;SDS011;540;49.448;8.612;2024-01-06T04:17:29;8.82;;;3.58;;
1106;SDS011;540;49.448;8.612;2024-01-06T04:19:57;5.32;;;3.40;;
1106;SDS011;540;49.448;8.612;2024-01-06T04:22:25;7.90;;;4.32;;
1106;SDS011;540;49.448;8.612;2024-01-06T04:24:54;6.43;;;3.55;;
1106;SDS011;540;49.448;8.612;2024-01-06T04:27:22;9.38;;;3.22;;
1106;SDS011;540;49.448;8.612;2024-01-06T04:29:50;6.68;;;3.58;;
1106;SDS011;540;49.448;8.612;2024-01-06T04:32:19;8.35;;;4.22;;
1106;SDS011;540;49.448;8.612;2024-01-06T04:34:47;9.25;;;4.47;;
1106;SDS011;540;49.448;8.612;2024-01-06T04:37:15;6.22;;;3.55;;
1106;SDS011;540;49.448;8.612;2024-01-06T04:39:43;6.07;;;3.47;;
1106;SDS011;540;49.448;8.612;2024-01-06T04:42:12;8.88;;;4.13;;
1106;SDS011;540;49.448;8.612;2024-01-06T04:44:40;6.63;;;3.35;;
1106;SDS011;540;49.448;8.612;2024-01-06T04:47:08;7.22;;;3.55;;
1106;SDS011;540;49.448;8.612;2024-01-06T04:49:35;8.10;;;3.70;;
1106;SDS011;540;49.448;8.612;2024-01-06T04:52:04;7.50;;;3.95;;
1106;SDS011;540;49.448;8.612;2024-01-06T04:54:32;9.65;;;4.10;;
1106;SDS011;540;49.448;8.612;2024-01-06T04:56:59;7.63;;;4.03;;
1106;SDS011;540;49.448;8.612;2024-01-06T04:59:29;6.45;;;3.50;;
1106;SDS011;540;49.448;8.612;2024-01-06T05:01:56;7.00;;;3.80;;
1106;SDS011;540;49.448;8.612;2024-01-06T05:04:25;5.43;;;3.45;;
1106;SDS011;540;49.448;8.612;2024-01-06T05:06:52;10.18;;;4.80;;
1106;SDS011;540;49.448;8.612;2024-01-06T05:09:21;8.27;;;3.88;;
1106;SDS011;540;49.448;8.612;2024-01-06T05:11:49;10.57;;;4.25;;
1106;SDS011;540;49.448;8.612;2024-01-06T05:14:17;9.48;;;4.35;;
1106;SDS011;540;49.448;8.612;2024-01-06T05:16:46;6.07;;;3.78;;
1106;SDS011;540;49.448;8.612;2024-01-06T05:19:14;10.77;;;3.85;;
1106;SDS011;540;49.448;8.612;2024-01-06T05:21:46;6.85;;;3.75;;
1106;SDS011;540;49.448;8.612;2024-01-06T05:24:15;7.60;;;4.13;;
1106;SDS011;540;49.448;8.612;2024-01-06T05:26:43;6.60;;;3.78;;
1106;SDS011;540;49.448;8.612;2024-01-06T05:29:11;7.15;;;4.10;;
1106;SDS011;540;49.448;8.612;2024-01-06T05:31:39;5.32;;;3.83;;
1106;SDS011;540;49.448;8.612;2024-01-06T05:34:08;6.75;;;3.50;;
1106;SDS011;540;49.448;8.612;2024-01-06T05:36:36;5.38;;;3.92;;
1106;SDS011;540;49.448;8.612;2024-01-06T05:39:04;6.90;;;3.85;;
1106;SDS011;540;49.448;8.612;2024-01-06T05:41:36;8.60;;;3.90;;
1106;SDS011;540;49.448;8.612;2024-01-06T05:44:05;8.13;;;4.18;;
1106;SDS011;540;49.448;8.612;2024-01-06T05:46:33;6.40;;;4.45;;
1106;SDS011;540;49.448;8.612;2024-01-06T05:49:01;6.47;;;4.35;;
1106;SDS011;540;49.448;8.612;2024-01-06T05:51:32;15.43;;;5.07;;
1106;SDS011;540;49.448;8.612;2024-01-06T05:54:00;8.13;;;5.05;;
1106;SDS011;540;49.448;8.612;2024-01-06T05:56:29;8.85;;;5.10;;
1106;SDS011;540;49.448;8.612;2024-01-06T05:58:56;7.93;;;4.10;;
1106;SDS011;540;49.448;8.612;2024-01-06T06:01:24;10.25;;;4.60;;
1106;SDS011;540;49.448;8.612;2024-01-06T06:03:52;7.50;;;4.57;;
1106;SDS011;540;49.448;8.612;2024-01-06T06:06:20;10.25;;;4.20;;
1106;SDS011;540;49.448;8.612;2024-01-06T06:08:49;12.05;;;5.00;;
1106;SDS011;540;49.448;8.612;2024-01-06T06:11:17;7.53;;;4.22;;
1106;SDS011;540;49.448;8.612;2024-01-06T06:13:45;8.07;;;4.45;;
1106;SDS011;540;49.448;8.612;2024-01-06T06:16:13;9.23;;;4.05;;
1106;SDS011;540;49.448;8.612;2024-01-06T06:18:41;8.05;;;4.47;;
1106;SDS011;540;49.448;8.612;2024-01-06T06:21:10;8.32;;;3.88;;
1106;SDS011;540;49.448;8.612;2024-01-06T06:23:38;8.98;;;4.63;;
1106;SDS011;540;49.448;8.612;2024-01-06T06:26:08;8.65;;;4.47;;
1106;SDS011;540;49.448;8.612;2024-01-06T06:28:38;9.43;;;4.57;;
1106;SDS011;540;49.448;8.612;2024-01-06T06:31:06;9.68;;;4.13;;
1106;SDS011;540;49.448;8.612;2024-01-06T06:33:34;8.27;;;4.13;;
1106;SDS011;540;49.448;8.612;2024-01-06T06:36:03;7.30;;;3.90;;
1106;SDS011;540;49.448;8.612;2024-01-06T06:38:31;10.82;;;4.80;;
1106;SDS011;540;49.448;8.612;2024-01-06T06:40:59;6.85;;;3.80;;
1106;SDS011;540;49.448;8.612;2024-01-06T06:43:31;4.78;;;3.47;;
1106;SDS011;540;49.448;8.612;2024-01-06T06:45:59;8.00;;;3.78;;
1106;SDS011;540;49.448;8.612;2024-01-06T06:48:27;7.57;;;3.80;;
1106;SDS011;540;49.448;8.612;2024-01-06T06:50:54;8.88;;;4.60;;
1106;SDS011;540;49.448;8.612;2024-01-06T06:53:22;11.43;;;5.80;;
1106;SDS011;540;49.448;8.612;2024-01-06T06:55:50;8.95;;;5.72;;
1106;SDS011;540;49.448;8.612;2024-01-06T06:58:18;7.60;;;4.82;;
1106;SDS011;540;49.448;8.612;2024-01-06T07:00:47;6.38;;;4.68;;
1106;SDS011;540;49.448;8.612;2024-01-06T07:03:15;8.25;;;4.40;;
1106;SDS011;540;49.448;8.612;2024-01-06T07:05:43;7.72;;;4.22;;
1106;SDS011;540;49.448;8.612;2024-01-06T07:08:11;6.85;;;3.90;;
1106;SDS011;540;49.448;8.612;2024-01-06T07:10:40;9.52;;;3.92;;
1106;SDS011;540;49.448;8.612;2024-01-06T07:13:09;6.57;;;3.75;;
1106;SDS011;540;49.448;8.612;2024-01-06T07:15:36;8.23;;;3.83;;
1106;SDS011;540;49.448;8.612;2024-01-06T07:18:06;7.07;;;3.88;;
1106;SDS011;540;49.448;8.612;2024-01-06T07:20:34;6.82;;;3.42;;
1106;SDS011;540;49.448;8.612;2024-01-06T07:23:02;7.25;;;3.40;;
1106;SDS011;540;49.448;8.612;2024-01-06T07:25:30;6.60;;;3.35;;
1106;SDS011;540;49.448;8.612;2024-01-06T07:27:58;6.60;;;3.60;;
1106;SDS011;540;49.448;8.612;2024-01-06T07:30:26;5.97;;;3.85;;
1106;SDS011;540;49.448;8.612;2024-01-06T07:32:54;6.50;;;3.50;;
1106;SDS011;540;49.448;8.612;2024-01-06T07:35:23;5.53;;;4.13;;
1106;SDS011;540;49.448;8.612;2024-01-06T07:37:51;6.90;;;3.97;;
1106;SDS011;540;49.448;8.612;2024-01-06T07:40:19;11.07;;;4.18;;
1106;SDS011;540;49.448;8.612;2024-01-06T07:42:49;8.98;;;4.00;;
1106;SDS011;540;49.448;8.612;2024-01-06T07:45:17;6.60;;;3.65;;
1106;SDS011;540;49.448;8.612;2024-01-06T07:47:45;7.47;;;4.18;;
1106;SDS011;540;49.448;8.612;2024-01-06T07:50:13;7.88;;;5.45;;
1106;SDS011;540;49.448;8.612;2024-01-06T07:52:42;7.10;;;5.00;;
1106;SDS011;540;49.448;8.612;2024-01-06T07:55:10;9.05;;;5.80;;
1106;SDS011;540;49.448;8.612;2024-01-06T07:57:38;12.60;;;7.50;;
1106;SDS011;540;49.448;8.612;2024-01-06T08:00:06;13.50;;;7.53;;
1106;SDS011;540;49.448;8.612;2024-01-06T08:02:35;8.20;;;5.78;;
1106;SDS011;540;49.448;8.612;2024-01-06T08:05:03;11.48;;;4.75;;
1106;SDS011;540;49.448;8.612;2024-01-06T08:07:33;10.27;;;4.30;;
1106;SDS011;540;49.448;8.612;2024-01-06T08:10:02;8.70;;;4.15;;
1106;SDS011;540;49.448;8.612;2024-01-06T08:12:31;8.05;;;3.60;;
1106;SDS011;540;49.448;8.612;2024-01-06T08:14:59;8.30;;;4.55;;
1106;SDS011;540;49.448;8.612;2024-01-06T08:17:27;7.85;;;4.05;;
1106;SDS011;540;49.448;8.612;2024-01-06T08:19:55;8.18;;;4.35;;
1106;SDS011;540;49.448;8.612;2024-01-06T08:22:23;10.55;;;4.22;;
1106;SDS011;540;49.448;8.612;2024-01-06T08:24:51;6.72;;;4.07;;
1106;SDS011;540;49.448;8.612;2024-01-06T08:27:20;5.50;;;3.90;;
1106;SDS011;540;49.448;8.612;2024-01-06T08:29:50;8.75;;;3.72;;
1106;SDS011;540;49.448;8.612;2024-01-06T08:32:18;7.05;;;4.22;;
1106;SDS011;540;49.448;8.612;2024-01-06T08:34:45;9.45;;;4.13;;
1106;SDS011;540;49.448;8.612;2024-01-06T08:37:13;8.32;;;4.55;;
1106;SDS011;540;49.448;8.612;2024-01-06T08:39:42;7.97;;;4.82;;
1106;SDS011;540;49.448;8.612;2024-01-06T08:42:10;8.63;;;4.38;;
1106;SDS011;540;49.448;8.612;2024-01-06T08:44:39;11.02;;;4.63;;
1106;SDS011;540;49.448;8.612;2024-01-06T08:47:07;9.82;;;4.40;;
1106;SDS011;540;49.448;8.612;2024-01-06T08:49:34;7.90;;;4.45;;
1106;SDS011;540;49.448;8.612;2024-01-06T08:52:03;8.07;;;4.32;;
1106;SDS011;540;49.448;8.612;2024-01-06T08:54:32;14.70;;;6.25;;
1106;SDS011;540;49.448;8.612;2024-01-06T08:57:00;8.43;;;4.70;;
1106;SDS011;540;49.448;8.612;2024-01-06T08:59:28;8.23;;;5.20;;
1106;SDS011;540;49.448;8.612;2024-01-06T09:01:58;9.00;;;5.38;;
1106;SDS011;540;49.448;8.612;2024-01-06T09:04:28;8.82;;;5.28;;
1106;SDS011;540;49.448;8.612;2024-01-06T09:06:57;9.10;;;5.28;;
1106;SDS011;540;49.448;8.612;2024-01-06T09:09:26;8.73;;;5.03;;
1106;SDS011;540;49.448;8.612;2024-01-06T09:11:56;7.47;;;5.03;;
1106;SDS011;540;49.448;8.612;2024-01-06T09:14:26;10.50;;;5.18;;
1106;SDS011;540;49.448;8.612;2024-01-06T09:16:54;7.50;;;4.82;;
1106;SDS011;540;49.448;8.612;2024-01-06T09:19:25;9.30;;;5.20;;
1106;SDS011;540;49.448;8.612;2024-01-06T09:21:57;9.98;;;4.90;;
1106;SDS011;540;49.448;8.612;2024-01-06T09:24:26;8.68;;;5.10;;
1106;SDS011;540;49.448;8.612;2024-01-06T09:26:55;9.55;;;5.22;;
1106;SDS011;540;49.448;8.612;2024-01-06T09:29:24;9.52;;;4.97;;
1106;SDS011;540;49.448;8.612;2024-01-06T09:31:56;9.80;;;4.97;;
1106;SDS011;540;49.448;8.612;2024-01-06T09:34:28;10.43;;;5.78;;
1106;SDS011;540;49.448;8.612;2024-01-06T09:36:57;10.73;;;5.82;;
1106;SDS011;540;49.448;8.612;2024-01-06T09:39:26;10.45;;;5.15;;
1106;SDS011;540;49.448;8.612;2024-01-06T09:41:54;7.32;;;4.68;;
1106;SDS011;540;49.448;8.612;2024-01-06T09:44:22;9.38;;;5.00;;
1106;SDS011;540;49.448;8.612;2024-01-06T09:46:50;7.55;;;5.05;;
1106;SDS011;540;49.448;8.612;2024-01-06T09:49:18;8.32;;;4.85;;
1106;SDS011;540;49.448;8.612;2024-01-06T09:51:51;11.68;;;5.72;;
1106;SDS011;540;49.448;8.612;2024-01-06T09:54:27;12.48;;;6.25;;
1106;SDS011;540;49.448;8.612;2024-01-06T09:57:00;8.70;;;4.97;;
1106;SDS011;540;49.448;8.612;2024-01-06T09:59:30;7.82;;;4.88;;
1106;SDS011;540;49.448;8.612;2024-01-06T10:02:01;7.90;;;4.65;;
1106;SDS011;540;49.448;8.612;2024-01-06T10:04:31;7.93;;;4.80;;
1106;SDS011;540;49.448;8.612;2024-01-06T10:07:00;10.95;;;5.70;;
1106;SDS011;540;49.448;8.612;2024-01-06T10:09:28;12.88;;;6.18;;
1106;SDS011;540;49.448;8.612;2024-01-06T10:11:56;8.48;;;5.32;;
1106;SDS011;540;49.448;8.612;2024-01-06T10:14:25;9.23;;;5.68;;
1106;SDS011;540;49.448;8.612;2024-01-06T10:16:53;10.75;;;6.80;;
1106;SDS011;540;49.448;8.612;2024-01-06T10:19:22;13.30;;;5.63;;
1106;SDS011;540;49.448;8.612;2024-01-06T10:21:51;8.60;;;4.28;;
1106;SDS011;540;49.448;8.612;2024-01-06T10:24:20;8.38;;;5.22;;
1106;SDS011;540;49.448;8.612;2024-01-06T10:26:48;6.88;;;4.85;;
1106;SDS011;540;49.448;8.612;2024-01-06T10:29:16;9.27;;;5.50;;
1106;SDS011;540;49.448;8.612;2024-01-06T10:31:44;14.23;;;8.43;;
1106;SDS011;540;49.448;8.612;2024-01-06T10:34:16;9.68;;;6.13;;
1106;SDS011;540;49.448;8.612;2024-01-06T10:36:45;6.45;;;4.80;;
1106;SDS011;540;49.448;8.612;2024-01-06T10:39:14;7.57;;;4.97;;
1106;SDS011;540;49.448;8.612;2024-01-06T10:41:44;10.00;;;5.18;;
1106;SDS011;540;49.448;8.612;2024-01-06T10:44:13;6.85;;;4.65;;
1106;SDS011;540;49.448;8.612;2024-01-06T10:46:42;6.88;;;4.95;;
1106;SDS011;540;49.448;8.612;2024-01-06T10:49:11;7.55;;;4.85;;
1106;SDS011;540;49.448;8.612;2024-01-06T10:51:40;8.07;;;5.05;;
1106;SDS011;540;49.448;8.612;2024-01-06T10:54:09;17.98;;;12.00;;
1106;SDS011;540;49.448;8.612;2024-01-06T10:56:39;11.55;;;6.32;;
1106;SDS011;540;49.448;8.612;2024-01-06T10:59:08;9.20;;;6.07;;
1106;SDS011;540;49.448;8.612;2024-01-06T11:01:38;11.48;;;6.43;;
1106;SDS011;540;49.448;8.612;2024-01-06T11:04:08;6.35;;;4.68;;
1106;SDS011;540;49.448;8.612;2024-01-06T11:06:37;9.05;;;5.55;;
1106;SDS011;540;49.448;8.612;2024-01-06T11:09:06;13.57;;;7.47;;
1106;SDS011;540;49.448;8.612;2024-01-06T11:11:38;9.05;;;5.00;;
1106;SDS011;540;49.448;8.612;2024-01-06T11:14:21;7.85;;;5.38;;
1106;SDS011;540;49.448;8.612;2024-01-06T11:16:51;8.48;;;5.95;;
1106;SDS011;540;49.448;8.612;2024-01-06T11:22:19;10.30;;;6.10;;
1106;SDS011;540;49.448;8.612;2024-01-06T11:24:48;9.50;;;6.18;;
1106;SDS011;540;49.448;8.612;2024-01-06T11:27:17;7.10;;;5.45;;
1106;SDS011;540;49.448;8.612;2024-01-06T11:29:48;8.57;;;5.70;;
1106;SDS011;540;49.448;8.612;2024-01-06T11:32:24;10.50;;;6.90;;
1106;SDS011;540;49.448;8.612;2024-01-06T11:34:54;9.45;;;5.97;;
1106;SDS011;540;49.448;8.612;2024-01-06T11:37:25;16.35;;;9.77;;
1106;SDS011;540;49.448;8.612;2024-01-06T11:40:03;18.05;;;9.85;;
1106;SDS011;540;49.448;8.612;2024-01-06T11:42:32;18.40;;;10.63;;
1106;SDS011;540;49.448;8.612;2024-01-06T11:45:02;13.90;;;9.10;;
1106;SDS011;540;49.448;8.612;2024-01-06T11:47:32;11.93;;;7.90;;
1106;SDS011;540;49.448;8.612;2024-01-06T11:50:01;16.17;;;10.65;;
1106;SDS011;540;49.448;8.612;2024-01-06T11:52:30;15.30;;;9.13;;
1106;SDS011;540;49.448;8.612;2024-01-06T11:54:59;11.13;;;7.28;;
1106;SDS011;540;49.448;8.612;2024-01-06T11:57:28;13.63;;;10.18;;
1106;SDS011;540;49.448;8.612;2024-01-06T11:59:56;14.00;;;9.88;;
1106;SDS011;540;49.448;8.612;2024-01-06T12:02:26;10.90;;;7.68;;
1106;SDS011;540;49.448;8.612;2024-01-06T12:04:53;15.32;;;10.80;;
1106;SDS011;540;49.448;8.612;2024-01-06T12:07:22;12.20;;;8.80;;
1106;SDS011;540;49.448;8.612;2024-01-06T12:09:50;9.90;;;8.40;;
1106;SDS011;540;49.448;8.612;2024-01-06T12:12:27;11.40;;;8.25;;
1106;SDS011;540;49.448;8.612;2024-01-06T12:14:55;10.75;;;7.20;;
1106;SDS011;540;49.448;8.612;2024-01-06T12:17:23;9.25;;;6.80;;
1106;SDS011;540;49.448;8.612;2024-01-06T12:19:57;9.90;;;7.97;;
1106;SDS011;540;49.448;8.612;2024-01-06T12:22:26;11.02;;;7.45;;
1106;SDS011;540;49.448;8.612;2024-01-06T12:24:54;12.43;;;7.40;;
1106;SDS011;540;49.448;8.612;2024-01-06T12:27:24;14.20;;;7.55;;
1106;SDS011;540;49.448;8.612;2024-01-06T12:29:52;14.88;;;8.73;;
1106;SDS011;540;49.448;8.612;2024-01-06T12:32:20;12.73;;;8.23;;
1106;SDS011;540;49.448;8.612;2024-01-06T12:34:49;15.00;;;9.73;;
1106;SDS011;540;49.448;8.612;2024-01-06T12:37:17;14.77;;;9.20;;
1106;SDS011;540;49.448;8.612;2024-01-06T12:39:46;11.50;;;8.45;;
1106;SDS011;540;49.448;8.612;2024-01-06T12:42:15;14.07;;;7.85;;
1106;SDS011;540;49.448;8.612;2024-01-06T12:44:43;12.30;;;8.45;;
1106;SDS011;540;49.448;8.612;2024-01-06T12:47:11;14.45;;;7.70;;
1106;SDS011;540;49.448;8.612;2024-01-06T12:49:40;17.20;;;10.02;;
1106;SDS011;540;49.448;8.612;2024-01-06T12:52:10;16.55;;;9.77;;
1106;SDS011;540;49.448;8.612;2024-01-06T12:54:38;14.15;;;8.88;;
1106;SDS011;540;49.448;8.612;2024-01-06T12:57:09;14.55;;;8.80;;
1106;SDS011;540;49.448;8.612;2024-01-06T12:59:38;14.70;;;9.65;;
1106;SDS011;540;49.448;8.612;2024-01-06T13:02:06;17.23;;;9.68;;
1106;SDS011;540;49.448;8.612;2024-01-06T13:04:34;18.95;;;10.43;;
1106;SDS011;540;49.448;8.612;2024-01-06T13:07:01;12.75;;;9.32;;
1106;SDS011;540;49.448;8.612;2024-01-06T13:09:31;19.02;;;11.93;;
1106;SDS011;540;49.448;8.612;2024-01-06T13:11:59;16.23;;;9.18;;
1106;SDS011;540;49.448;8.612;2024-01-06T13:14:27;11.35;;;8.23;;
1106;SDS011;540;49.448;8.612;2024-01-06T13:16:58;12.13;;;7.95;;
1106;SDS011;540;49.448;8.612;2024-01-06T13:19:25;12.23;;;7.63;;
1106;SDS011;540;49.448;8.612;2024-01-06T13:21:54;12.38;;;7.38;;
1106;SDS011;540;49.448;8.612;2024-01-06T13:24:24;12.15;;;8.05;;
1106;SDS011;540;49.448;8.612;2024-01-06T13:26:55;10.35;;;7.63;;
1106;SDS011;540;49.448;8.612;2024-01-06T13:29:24;38.85;;;25.27;;
1106;SDS011;540;49.448;8.612;2024-01-06T13:31:53;16.13;;;9.52;;
1106;SDS011;540;49.448;8.612;2024-01-06T13:34:24;11.48;;;7.68;;
1106;SDS011;540;49.448;8.612;2024-01-06T13:36:52;11.07;;;7.40;;
1106;SDS011;540;49.448;8.612;2024-01-06T13:39:22;12.93;;;8.27;;
1106;SDS011;540;49.448;8.612;2024-01-06T13:41:51;14.70;;;7.97;;
1106;SDS011;540;49.448;8.612;2024-01-06T13:44:20;12.48;;;7.40;;
1106;SDS011;540;49.448;8.612;2024-01-06T13:46:48;8.85;;;6.60;;
1106;SDS011;540;49.448;8.612;2024-01-06T13:49:17;10.52;;;6.88;;
1106;SDS011;540;49.448;8.612;2024-01-06T13:51:46;8.85;;;7.00;;
1106;SDS011;540;49.448;8.612;2024-01-06T13:54:14;9.32;;;6.60;;
1106;SDS011;540;49.448;8.612;2024-01-06T13:56:45;12.38;;;7.40;;
1106;SDS011;540;49.448;8.612;2024-01-06T13:59:13;9.15;;;7.18;;
1106;SDS011;540;49.448;8.612;2024-01-06T14:01:44;9.93;;;7.18;;
1106;SDS011;540;49.448;8.612;2024-01-06T14:04:12;11.88;;;8.40;;
1106;SDS011;540;49.448;8.612;2024-01-06T14:06:40;13.85;;;9.65;;
1106;SDS011;540;49.448;8.612;2024-01-06T14:09:10;13.93;;;8.77;;
1106;SDS011;540;49.448;8.612;2024-01-06T14:11:38;10.98;;;8.52;;
1106;SDS011;540;49.448;8.612;2024-01-06T14:14:06;10.05;;;7.38;;
1106;SDS011;540;49.448;8.612;2024-01-06T14:16:34;10.25;;;7.80;;
1106;SDS011;540;49.448;8.612;2024-01-06T14:19:03;10.32;;;7.85;;
1106;SDS011;540;49.448;8.612;2024-01-06T14:21:31;13.05;;;9.15;;
1106;SDS011;540;49.448;8.612;2024-01-06T14:24:01;12.57;;;8.40;;
1106;SDS011;540;49.448;8.612;2024-01-06T14:26:29;11.75;;;7.00;;
1106;SDS011;540;49.448;8.612;2024-01-06T14:28:58;11.27;;;8.13;;
1106;SDS011;540;49.448;8.612;2024-01-06T14:31:26;13.65;;;10.15;;
1106;SDS011;540;49.448;8.612;2024-01-06T14:33:54;13.30;;;10.05;;
1106;SDS011;540;49.448;8.612;2024-01-06T14:36:27;13.50;;;10.50;;
1106;SDS011;540;49.448;8.612;2024-01-06T14:38:55;15.98;;;11.57;;
1106;SDS011;540;49.448;8.612;2024-01-06T14:41:23;15.27;;;10.15;;
1106;SDS011;540;49.448;8.612;2024-01-06T14:43:51;16.85;;;9.88;;
1106;SDS011;540;49.448;8.612;2024-01-06T14:46:19;11.73;;;8.90;;
1106;SDS011;540;49.448;8.612;2024-01-06T14:48:47;12.05;;;9.25;;
1106;SDS011;540;49.448;8.612;2024-01-06T14:51:15;13.95;;;10.10;;
1106;SDS011;540;49.448;8.612;2024-01-06T14:53:44;28.70;;;18.08;;
1106;SDS011;540;49.448;8.612;2024-01-06T14:56:12;16.08;;;11.90;;
1106;SDS011;540;49.448;8.612;2024-01-06T14:58:40;13.60;;;10.57;;
1106;SDS011;540;49.448;8.612;2024-01-06T15:01:08;17.90;;;11.48;;
1106;SDS011;540;49.448;8.612;2024-01-06T15:03:36;18.17;;;12.70;;
1106;SDS011;540;49.448;8.612;2024-01-06T15:06:04;20.23;;;14.52;;
1106;SDS011;540;49.448;8.612;2024-01-06T15:08:32;16.98;;;11.63;;
1106;SDS011;540;49.448;8.612;2024-01-06T15:11:02;16.63;;;11.63;;
1106;SDS011;540;49.448;8.612;2024-01-06T15:13:30;19.80;;;13.18;;
1106;SDS011;540;49.448;8.612;2024-01-06T15:15:58;13.93;;;11.00;;
1106;SDS011;540;49.448;8.612;2024-01-06T15:18:26;15.40;;;11.93;;
1106;SDS011;540;49.448;8.612;2024-01-06T15:20:54;12.77;;;10.48;;
1106;SDS011;540;49.448;8.612;2024-01-06T15:23:22;14.68;;;11.35;;
1106;SDS011;540;49.448;8.612;2024-01-06T15:25:50;15.20;;;12.23;;
1106;SDS011;540;49.448;8.612;2024-01-06T15:28:19;21.52;;;13.93;;
1106;SDS011;540;49.448;8.612;2024-01-06T15:30:48;21.48;;;16.40;;
1106;SDS011;540;49.448;8.612;2024-01-06T15:33:16;21.30;;;13.70;;